createdAt,value
2022-11-02T00:02:49.169Z,777.05
2022-11-02T00:18:19.686Z,768.50
2022-11-02T00:23:25.185Z,768.80
2022-11-02T00:28:28.270Z,764.65
2022-11-02T00:33:33.990Z,774.70
2022-11-02T00:38:36.545Z,771.35
2022-11-02T00:43:38.858Z,770.40
2022-11-02T00:48:41.601Z,772.97
2022-11-02T00:53:44.941Z,778.08
2022-11-02T00:58:50.809Z,766.83
2022-11-02T01:03:52.695Z,776.75
2022-11-02T01:08:55.072Z,760.25
2022-11-02T01:13:57.988Z,765.85
2022-11-02T01:19:01.248Z,770.88
2022-11-02T01:24:03.412Z,771.58
2022-11-02T01:29:13.567Z,766.25
2022-11-02T01:34:15.999Z,769.83
2022-11-02T01:39:18.752Z,771.90
2022-11-02T01:44:35.719Z,762.67
2022-11-02T01:49:47.656Z,764.92
2022-11-02T01:54:58.842Z,768.47
2022-11-02T02:00:14.534Z,755.97
2022-11-02T02:05:20.362Z,754.10
2022-11-02T02:10:29.088Z,752.92
2022-11-02T02:15:56.890Z,756.90
2022-11-02T02:21:20.324Z,758.33
2022-11-02T02:27:04.864Z,757.83
2022-11-02T02:32:25.618Z,757.85
2022-11-02T02:37:53.446Z,754.60
2022-11-02T02:43:06.104Z,752.73
2022-11-02T02:48:23.001Z,765.33
2022-11-02T02:53:32.068Z,762.78
2022-11-02T02:58:59.994Z,763.67
2022-11-02T03:04:03.343Z,756.70
2022-11-02T03:09:20.178Z,766.00
2022-11-02T03:15:15.578Z,757.05
2022-11-02T03:20:55.631Z,755.13
2022-11-02T03:26:30.256Z,757.88
2022-11-02T03:31:43.360Z,748.67
2022-11-02T03:36:58.670Z,751.13
2022-11-02T03:42:04.887Z,751.27
2022-11-02T03:47:13.501Z,759.85
2022-11-02T03:52:23.438Z,754.97
2022-11-02T03:57:32.569Z,764.33
2022-11-02T04:02:37.705Z,748.37
2022-11-02T04:08:02.722Z,755.50
2022-11-02T04:13:23.847Z,749.40
2022-11-02T04:18:52.043Z,753.30
2022-11-02T04:24:13.069Z,743.60
2022-11-02T04:29:15.759Z,755.25
2022-11-02T04:34:19.599Z,748.90
2022-11-02T04:39:21.829Z,754.47
2022-11-02T04:44:27.857Z,751.83
2022-11-02T04:49:45.511Z,760.70
2022-11-02T04:55:17.376Z,756.35
2022-11-02T05:00:39.973Z,769.17
2022-11-02T05:05:44.615Z,762.37
2022-11-02T05:11:07.094Z,769.10
2022-11-02T05:16:29.619Z,753.67
2022-11-02T05:21:32.277Z,759.53
2022-11-02T05:26:34.595Z,762.95
2022-11-02T05:31:36.650Z,768.50
2022-11-02T05:36:38.700Z,763.22
2022-11-02T05:41:40.758Z,763.58
2022-11-02T05:46:44.783Z,771.65
2022-11-02T05:51:49.260Z,766.40
2022-11-02T05:56:51.960Z,760.67
2022-11-02T06:01:56.837Z,762.22
2022-11-02T06:07:00.187Z,756.40
2022-11-02T06:12:02.105Z,772.97
2022-11-02T06:17:06.286Z,758.63
2022-11-02T06:22:11.533Z,758.28
2022-11-02T06:28:07.333Z,765.55
2022-11-02T06:33:09.828Z,764.35
2022-11-02T06:38:12.059Z,762.50
2022-11-02T06:43:17.829Z,763.03
2022-11-02T06:48:19.873Z,759.92
2022-11-02T06:53:21.757Z,763.28
2022-11-02T06:58:24.609Z,757.03
2022-11-02T07:03:27.386Z,751.10
2022-11-02T07:08:30.044Z,764.70
2022-11-02T07:13:31.924Z,761.58
2022-11-02T07:18:34.327Z,759.55
2022-11-02T07:23:36.118Z,748.53
2022-11-02T07:28:38.798Z,752.97
2022-11-02T07:33:42.025Z,754.65
2022-11-02T07:38:44.497Z,754.85
2022-11-02T07:43:47.256Z,763.10
2022-11-02T07:49:07.907Z,769.33
2022-11-02T07:54:09.655Z,763.28
2022-11-02T07:59:13.229Z,762.42
2022-11-02T08:04:15.008Z,761.65
2022-11-02T08:09:25.050Z,766.78
2022-11-02T08:14:27.958Z,767.80
2022-11-02T08:24:48.609Z,773.17
2022-11-02T08:29:50.844Z,762.95
2022-11-02T08:34:53.321Z,771.28
2022-11-02T08:39:55.138Z,771.95
2022-11-02T08:44:56.917Z,766.42
2022-11-02T08:49:58.684Z,772.47
2022-11-02T08:55:00.442Z,776.70
2022-11-02T09:00:02.247Z,775.38
2022-11-02T09:05:04.625Z,768.38
2022-11-02T09:10:07.741Z,785.10
2022-11-02T09:15:09.791Z,775.75
2022-11-02T09:20:11.732Z,777.25
2022-11-02T09:25:14.763Z,772.28
2022-11-02T09:30:20.607Z,785.40
2022-11-02T09:35:26.513Z,775.42
2022-11-02T09:40:32.014Z,782.10
2022-11-02T09:45:35.177Z,785.63
2022-11-02T09:50:59.383Z,788.97
2022-11-02T09:56:06.135Z,784.17
2022-11-02T10:01:36.159Z,786.08
2022-11-02T10:06:45.884Z,798.70
2022-11-02T10:12:06.309Z,783.22
2022-11-02T10:17:14.040Z,786.58
2022-11-02T10:22:19.358Z,793.08
2022-11-02T10:27:29.326Z,791.83
2022-11-02T10:32:32.477Z,804.60
2022-11-02T10:37:41.383Z,788.85
2022-11-02T10:42:44.094Z,788.10
2022-11-02T10:48:05.554Z,811.80
2022-11-02T10:53:35.114Z,801.47
2022-11-02T10:58:39.285Z,819.40
2022-11-02T11:03:54.249Z,818.60
2022-11-02T11:09:07.588Z,847.80
2022-11-02T11:19:43.816Z,821.53
2022-11-02T11:24:45.611Z,817.83
2022-11-02T11:29:55.586Z,832.10
2022-11-02T11:35:00.244Z,849.87
2022-11-02T11:40:19.101Z,845.83
2022-11-02T11:45:23.606Z,844.00
2022-11-02T11:50:29.130Z,837.50
2022-11-02T11:55:32.135Z,851.70
2022-11-02T12:00:34.997Z,846.47
2022-11-02T12:05:56.983Z,838.42
2022-11-02T12:11:19.178Z,843.72
2022-11-02T12:16:27.578Z,860.53
2022-11-02T12:21:38.917Z,868.77
2022-11-02T12:26:52.326Z,858.38
2022-11-02T12:32:20.132Z,863.65
2022-11-02T12:37:41.266Z,891.00
2022-11-02T12:43:12.574Z,887.43
2022-11-02T12:48:19.608Z,876.17
2022-11-02T12:53:49.684Z,895.05
2022-11-02T12:58:51.933Z,904.10
2022-11-02T13:03:54.183Z,897.77
2022-11-02T13:09:05.572Z,872.77
2022-11-02T13:14:15.373Z,867.73
2022-11-02T13:19:23.016Z,833.33
2022-11-02T13:24:34.545Z,834.60
2022-11-02T13:29:44.948Z,814.03
2022-11-02T13:34:52.141Z,801.83
2022-11-02T13:39:55.595Z,801.15
2022-11-02T13:45:17.104Z,798.22
2022-11-02T13:50:21.102Z,804.38
2022-11-02T13:55:34.672Z,810.00
2022-11-02T14:00:46.091Z,802.72
2022-11-02T14:05:52.638Z,802.55
2022-11-02T14:11:05.782Z,804.07
2022-11-02T14:16:08.400Z,801.25
2022-11-02T14:21:36.262Z,799.00
2022-11-02T14:26:53.715Z,800.63
2022-11-02T14:31:59.607Z,801.45
2022-11-02T14:37:09.639Z,796.63
2022-11-02T14:42:30.177Z,796.53
2022-11-02T14:47:35.827Z,798.33
2022-11-02T14:53:04.598Z,795.55
2022-11-02T14:58:11.172Z,800.05
2022-11-02T15:03:25.453Z,807.45
2022-11-02T15:08:31.563Z,786.58
2022-11-02T15:13:34.511Z,792.10
2022-11-02T15:18:37.271Z,789.63
2022-11-02T15:23:48.067Z,795.63
2022-11-02T15:28:50.586Z,794.78
2022-11-02T15:33:57.568Z,792.10
2022-11-02T15:39:09.419Z,794.07
2022-11-02T15:44:21.076Z,786.13
2022-11-02T15:49:27.014Z,792.20
2022-11-02T15:54:47.305Z,790.17
2022-11-02T16:00:09.859Z,786.15
2022-11-02T16:05:25.283Z,733.22
2022-11-02T16:10:37.840Z,765.67
2022-11-02T16:15:42.441Z,812.90
2022-11-02T16:20:46.289Z,787.17
2022-11-02T16:25:48.388Z,781.78
2022-11-02T16:31:17.274Z,776.47
2022-11-02T16:36:22.205Z,765.58
2022-11-02T16:41:27.975Z,770.63
2022-11-02T16:46:30.900Z,763.00
2022-11-02T16:51:37.080Z,771.10
2022-11-02T16:56:38.938Z,773.80
2022-11-02T17:01:41.448Z,773.03
2022-11-02T17:06:45.624Z,769.35
2022-11-02T17:11:48.860Z,775.20
2022-11-02T17:16:59.777Z,768.72
2022-11-02T17:22:25.105Z,769.40
2022-11-02T17:27:28.524Z,764.75
2022-11-02T17:32:30.509Z,773.28
2022-11-02T17:37:32.375Z,763.15
2022-11-02T17:42:56.483Z,766.55
2022-11-02T17:47:59.537Z,763.55
2022-11-02T17:53:02.353Z,764.25
2022-11-02T17:58:05.649Z,764.67
2022-11-02T18:03:13.468Z,767.28
2022-11-02T18:08:16.027Z,756.83
2022-11-02T18:13:20.187Z,766.08
2022-11-02T18:18:22.205Z,757.90
2022-11-02T18:23:24.247Z,761.47
2022-11-02T18:28:27.434Z,757.83
2022-11-02T18:33:29.255Z,757.75
2022-11-02T18:38:31.357Z,763.60
2022-11-02T18:43:33.157Z,763.28
2022-11-02T18:48:34.949Z,764.75
2022-11-02T18:53:36.986Z,763.40
2022-11-02T18:58:38.884Z,755.10
2022-11-02T19:03:40.721Z,760.60
2022-11-02T19:09:01.229Z,767.83
2022-11-02T19:14:05.089Z,755.13
2022-11-02T19:19:06.935Z,761.53
2022-11-02T19:24:08.902Z,763.33
2022-11-02T19:29:10.698Z,753.38
2022-11-02T19:34:12.861Z,759.17
2022-11-02T19:39:14.629Z,759.97
2022-11-02T19:44:16.417Z,764.90
2022-11-02T19:49:18.208Z,774.28
2022-11-02T19:54:22.696Z,763.80
2022-11-02T19:59:25.527Z,770.75
2022-11-02T20:04:27.351Z,763.08
2022-11-02T20:09:29.236Z,766.25
2022-11-02T20:14:31.061Z,765.60
2022-11-02T20:19:33.905Z,770.80
2022-11-02T20:24:38.258Z,774.38
2022-11-02T20:29:41.588Z,762.53
2022-11-02T20:34:43.357Z,771.42
2022-11-02T20:39:47.524Z,774.15
2022-11-02T20:44:50.052Z,768.03
2022-11-02T20:49:51.927Z,759.80
2022-11-02T20:54:56.729Z,764.72
2022-11-02T20:59:58.910Z,770.33
2022-11-02T21:05:00.775Z,763.13
2022-11-02T21:10:05.277Z,769.28
2022-11-02T21:15:07.600Z,767.05
2022-11-02T21:25:33.449Z,767.80
2022-11-02T21:30:35.750Z,767.10
2022-11-02T21:35:46.954Z,765.92
2022-11-02T21:41:04.702Z,766.42
2022-11-02T21:46:07.610Z,762.45
2022-11-02T21:51:11.192Z,762.05
2022-11-02T21:56:14.765Z,758.55
2022-11-02T22:01:39.558Z,770.20
2022-11-02T22:06:41.817Z,761.28
2022-11-02T22:11:45.119Z,758.45
2022-11-02T22:16:48.070Z,760.42
2022-11-02T22:21:51.328Z,761.10
2022-11-02T22:26:53.448Z,759.55
2022-11-02T22:31:56.700Z,765.67
2022-11-02T22:37:18.854Z,760.22
2022-11-02T22:42:21.718Z,757.20
2022-11-02T22:47:23.981Z,752.90
2022-11-02T22:52:25.718Z,756.40
2022-11-02T22:57:27.610Z,759.42
2022-11-02T23:02:29.380Z,759.67
2022-11-02T23:07:31.193Z,760.63
2022-11-02T23:12:32.941Z,754.92
2022-11-02T23:17:37.235Z,753.00
2022-11-02T23:22:39.004Z,758.60
2022-11-02T23:28:02.548Z,757.90
2022-11-02T23:33:06.110Z,752.25
2022-11-02T23:38:08.251Z,748.47
2022-11-02T23:43:10.045Z,755.28
2022-11-02T23:48:11.969Z,751.78
2022-11-02T23:53:36.234Z,752.78
2022-11-02T23:58:38.455Z,743.25
